sensor_id;sensor_type;location;lat;lon;timestamp;temperature;humidity
7936;DHT22;4013;49.744;8.118;2023-05-07T02:24:01;13.80;99.90
7936;DHT22;4013;49.744;8.118;2023-05-07T02:26:29;13.70;99.90
7936;DHT22;4013;49.744;8.118;2023-05-07T02:28:55;13.60;99.90
7936;DHT22;4013;49.744;8.118;2023-05-07T02:31:22;13.70;99.90
7936;DHT22;4013;49.744;8.118;2023-05-07T02:33:49;13.70;99.90
7936;DHT22;4013;49.744;8.118;2023-05-07T02:36:16;13.80;99.90
7936;DHT22;4013;49.744;8.118;2023-05-07T02:38:43;13.90;99.90
7936;DHT22;4013;49.744;8.118;2023-05-07T02:41:11;14.00;99.90
7936;DHT22;4013;49.744;8.118;2023-05-07T02:43:38;14.10;99.90
7936;DHT22;4013;49.744;8.118;2023-05-07T02:46:07;14.10;99.90
7936;DHT22;4013;49.744;8.118;2023-05-07T02:48:34;14.10;99.90
7936;DHT22;4013;49.744;8.118;2023-05-07T02:51:02;14.20;99.90
7936;DHT22;4013;49.744;8.118;2023-05-07T02:53:29;14.10;99.90
7936;DHT22;4013;49.744;8.118;2023-05-07T02:55:58;14.00;99.90
7936;DHT22;4013;49.744;8.118;2023-05-07T02:58:26;14.00;99.90
7936;DHT22;4013;49.744;8.118;2023-05-07T03:00:54;14.00;99.90
7936;DHT22;4013;49.744;8.118;2023-05-07T03:03:21;14.00;99.90
7936;DHT22;4013;49.744;8.118;2023-05-07T03:05:48;13.90;99.90
7936;DHT22;4013;49.744;8.118;2023-05-07T03:08:15;13.80;99.90
7936;DHT22;4013;49.744;8.118;2023-05-07T03:10:42;13.80;99.90
7936;DHT22;4013;49.744;8.118;2023-05-07T03:13:09;13.80;99.90
7936;DHT22;4013;49.744;8.118;2023-05-07T03:15:37;13.80;99.90
7936;DHT22;4013;49.744;8.118;2023-05-07T03:18:04;13.90;99.90
7936;DHT22;4013;49.744;8.118;2023-05-07T03:20:31;13.90;99.90
7936;DHT22;4013;49.744;8.118;2023-05-07T03:22:58;13.80;99.90
7936;DHT22;4013;49.744;8.118;2023-05-07T03:25:25;13.90;99.90
7936;DHT22;4013;49.744;8.118;2023-05-07T03:27:52;13.90;99.90
7936;DHT22;4013;49.744;8.118;2023-05-07T03:30:19;13.90;99.90
7936;DHT22;4013;49.744;8.118;2023-05-07T03:32:47;13.90;99.90
7936;DHT22;4013;49.744;8.118;2023-05-07T03:35:14;14.00;99.90
7936;DHT22;4013;49.744;8.118;2023-05-07T03:37:42;13.90;99.90
7936;DHT22;4013;49.744;8.118;2023-05-07T03:40:10;13.80;99.90
7936;DHT22;4013;49.744;8.118;2023-05-07T03:42:37;13.70;99.90
7936;DHT22;4013;49.744;8.118;2023-05-07T03:45:05;13.70;99.90
7936;DHT22;4013;49.744;8.118;2023-05-07T03:47:32;13.60;99.90
7936;DHT22;4013;49.744;8.118;2023-05-07T03:50:01;13.60;99.90
7936;DHT22;4013;49.744;8.118;2023-05-07T03:52:27;13.60;99.90
7936;DHT22;4013;49.744;8.118;2023-05-07T03:54:54;13.60;99.90
7936;DHT22;4013;49.744;8.118;2023-05-07T03:57:21;13.50;99.90
7936;DHT22;4013;49.744;8.118;2023-05-07T03:59:48;13.40;99.90
7936;DHT22;4013;49.744;8.118;2023-05-07T04:02:15;13.40;99.90
7936;DHT22;4013;49.744;8.118;2023-05-07T04:04:42;13.40;99.90
7936;DHT22;4013;49.744;8.118;2023-05-07T04:07:10;13.50;99.90
7936;DHT22;4013;49.744;8.118;2023-05-07T04:09:37;13.50;99.90
7936;DHT22;4013;49.744;8.118;2023-05-07T04:12:04;13.50;99.90
7936;DHT22;4013;49.744;8.118;2023-05-07T04:14:31;13.50;99.90
7936;DHT22;4013;49.744;8.118;2023-05-07T04:16:58;13.60;99.90
7936;DHT22;4013;49.744;8.118;2023-05-07T04:19:25;13.70;99.90
7936;DHT22;4013;49.744;8.118;2023-05-07T04:21:52;13.60;99.90
7936;DHT22;4013;49.744;8.118;2023-05-07T04:24:21;13.70;99.90
7936;DHT22;4013;49.744;8.118;2023-05-07T04:26:48;13.80;99.90
7936;DHT22;4013;49.744;8.118;2023-05-07T04:29:16;13.80;99.90
7936;DHT22;4013;49.744;8.118;2023-05-07T04:31:43;13.80;99.90
7936;DHT22;4013;49.744;8.118;2023-05-07T04:34:11;13.70;99.90
7936;DHT22;4013;49.744;8.118;2023-05-07T04:36:38;13.70;99.90
7936;DHT22;4013;49.744;8.118;2023-05-07T04:39:05;13.70;99.90
7936;DHT22;4013;49.744;8.118;2023-05-07T04:41:35;13.80;99.90
7936;DHT22;4013;49.744;8.118;2023-05-07T04:44:02;13.80;99.90
7936;DHT22;4013;49.744;8.118;2023-05-07T04:46:32;13.80;99.90
7936;DHT22;4013;49.744;8.118;2023-05-07T04:48:59;13.80;99.90
7936;DHT22;4013;49.744;8.118;2023-05-07T04:51:25;13.80;99.90
7936;DHT22;4013;49.744;8.118;2023-05-07T04:53:53;13.90;99.90
7936;DHT22;4013;49.744;8.118;2023-05-07T04:56:20;13.80;99.90
7936;DHT22;4013;49.744;8.118;2023-05-07T04:58:48;13.90;99.90
7936;DHT22;4013;49.744;8.118;2023-05-07T05:01:15;13.90;99.90
7936;DHT22;4013;49.744;8.118;2023-05-07T05:03:42;13.90;99.90
7936;DHT22;4013;49.744;8.118;2023-05-07T05:06:11;13.90;99.90
7936;DHT22;4013;49.744;8.118;2023-05-07T05:08:38;14.00;99.90
7936;DHT22;4013;49.744;8.118;2023-05-07T05:11:05;14.00;99.90
7936;DHT22;4013;49.744;8.118;2023-05-07T05:13:32;14.10;99.90
7936;DHT22;4013;49.744;8.118;2023-05-07T05:16:00;14.20;99.90
7936;DHT22;4013;49.744;8.118;2023-05-07T05:18:27;14.20;99.90
7936;DHT22;4013;49.744;8.118;2023-05-07T05:20:54;14.30;99.90
7936;DHT22;4013;49.744;8.118;2023-05-07T05:23:21;14.40;99.90
7936;DHT22;4013;49.744;8.118;2023-05-07T05:25:48;14.40;99.90
7936;DHT22;4013;49.744;8.118;2023-05-07T05:28:15;14.40;99.90
7936;DHT22;4013;49.744;8.118;2023-05-07T05:30:42;14.50;99.90
7936;DHT22;4013;49.744;8.118;2023-05-07T05:33:10;14.60;99.90
7936;DHT22;4013;49.744;8.118;2023-05-07T05:35:37;14.70;99.90
7936;DHT22;4013;49.744;8.118;2023-05-07T05:38:04;14.80;99.90
7936;DHT22;4013;49.744;8.118;2023-05-07T05:40:31;14.80;99.90
7936;DHT22;4013;49.744;8.118;2023-05-07T05:42:58;14.90;99.90
7936;DHT22;4013;49.744;8.118;2023-05-07T05:45:25;15.10;99.90
7936;DHT22;4013;49.744;8.118;2023-05-07T05:47:52;15.10;99.90
7936;DHT22;4013;49.744;8.118;2023-05-07T05:50:21;15.20;99.90
7936;DHT22;4013;49.744;8.118;2023-05-07T05:52:48;15.20;99.90
7936;DHT22;4013;49.744;8.118;2023-05-07T05:55:15;15.20;99.90
7936;DHT22;4013;49.744;8.118;2023-05-07T05:57:42;15.20;99.90
7936;DHT22;4013;49.744;8.118;2023-05-07T06:00:09;15.30;99.90
7936;DHT22;4013;49.744;8.118;2023-05-07T06:02:37;15.30;99.90
7936;DHT22;4013;49.744;8.118;2023-05-07T06:05:04;15.40;99.90
7936;DHT22;4013;49.744;8.118;2023-05-07T06:07:33;15.30;99.90
7936;DHT22;4013;49.744;8.118;2023-05-07T06:10:00;15.40;99.90
7936;DHT22;4013;49.744;8.118;2023-05-07T06:12:27;15.40;99.90
7936;DHT22;4013;49.744;8.118;2023-05-07T06:14:54;15.50;99.90
7936;DHT22;4013;49.744;8.118;2023-05-07T06:17:21;15.50;99.90
7936;DHT22;4013;49.744;8.118;2023-05-07T06:19:49;15.60;99.90
7936;DHT22;4013;49.744;8.118;2023-05-07T06:22:16;15.60;99.90
7936;DHT22;4013;49.744;8.118;2023-05-07T06:24:44;15.60;99.90
7936;DHT22;4013;49.744;8.118;2023-05-07T06:27:11;15.70;99.90
7936;DHT22;4013;49.744;8.118;2023-05-07T06:29:38;15.60;99.90
7936;DHT22;4013;49.744;8.118;2023-05-07T06:32:09;15.60;99.90
7936;DHT22;4013;49.744;8.118;2023-05-07T06:34:37;15.80;99.90
7936;DHT22;4013;49.744;8.118;2023-05-07T06:37:04;15.80;99.90
7936;DHT22;4013;49.744;8.118;2023-05-07T06:39:31;15.80;99.90
7936;DHT22;4013;49.744;8.118;2023-05-07T06:42:00;15.90;99.90
7936;DHT22;4013;49.744;8.118;2023-05-07T06:44:27;15.90;99.90
7936;DHT22;4013;49.744;8.118;2023-05-07T06:46:54;16.00;99.90
7936;DHT22;4013;49.744;8.118;2023-05-07T06:49:21;16.10;99.90
7936;DHT22;4013;49.744;8.118;2023-05-07T06:51:48;16.20;99.90
7936;DHT22;4013;49.744;8.118;2023-05-07T06:54:15;16.20;99.90
7936;DHT22;4013;49.744;8.118;2023-05-07T06:56:42;16.30;99.90
7936;DHT22;4013;49.744;8.118;2023-05-07T06:59:10;16.40;99.90
7936;DHT22;4013;49.744;8.118;2023-05-07T07:01:37;16.40;99.90
7936;DHT22;4013;49.744;8.118;2023-05-07T07:04:04;16.40;99.90
7936;DHT22;4013;49.744;8.118;2023-05-07T07:06:31;16.40;99.90
7936;DHT22;4013;49.744;8.118;2023-05-07T07:08:58;16.50;99.90
7936;DHT22;4013;49.744;8.118;2023-05-07T07:11:26;16.50;99.90
7936;DHT22;4013;49.744;8.118;2023-05-07T07:13:52;16.50;99.90
7936;DHT22;4013;49.744;8.118;2023-05-07T07:16:21;16.40;99.90
7936;DHT22;4013;49.744;8.118;2023-05-07T07:18:48;16.50;99.90
7936;DHT22;4013;49.744;8.118;2023-05-07T07:21:15;16.50;99.90
7936;DHT22;4013;49.744;8.118;2023-05-07T07:23:42;16.50;99.90
7936;DHT22;4013;49.744;8.118;2023-05-07T07:26:09;16.50;99.90
7936;DHT22;4013;49.744;8.118;2023-05-07T07:28:42;16.50;99.90
7936;DHT22;4013;49.744;8.118;2023-05-07T07:31:10;16.50;99.90
7936;DHT22;4013;49.744;8.118;2023-05-07T07:33:38;16.50;99.90
7936;DHT22;4013;49.744;8.118;2023-05-07T07:36:06;16.50;99.90
7936;DHT22;4013;49.744;8.118;2023-05-07T07:38:33;16.50;99.90
7936;DHT22;4013;49.744;8.118;2023-05-07T07:41:00;16.50;99.90
7936;DHT22;4013;49.744;8.118;2023-05-07T07:43:28;16.50;99.90
7936;DHT22;4013;49.744;8.118;2023-05-07T07:45:55;16.50;99.90
7936;DHT22;4013;49.744;8.118;2023-05-07T07:48:21;16.60;99.90
7936;DHT22;4013;49.744;8.118;2023-05-07T07:50:50;16.60;99.90
7936;DHT22;4013;49.744;8.118;2023-05-07T07:53:17;16.60;99.90
7936;DHT22;4013;49.744;8.118;2023-05-07T07:55:44;16.60;99.90
7936;DHT22;4013;49.744;8.118;2023-05-07T07:58:11;16.50;99.90
7936;DHT22;4013;49.744;8.118;2023-05-07T08:00:38;16.60;99.90
7936;DHT22;4013;49.744;8.118;2023-05-07T08:03:05;16.60;99.90
7936;DHT22;4013;49.744;8.118;2023-05-07T08:05:32;16.70;99.90
7936;DHT22;4013;49.744;8.118;2023-05-07T08:08:01;16.80;99.90
7936;DHT22;4013;49.744;8.118;2023-05-07T08:10:28;16.90;99.90
7936;DHT22;4013;49.744;8.118;2023-05-07T08:12:59;17.00;99.90
7936;DHT22;4013;49.744;8.118;2023-05-07T08:15:26;17.10;99.90
7936;DHT22;4013;49.744;8.118;2023-05-07T08:17:53;17.10;99.90
7936;DHT22;4013;49.744;8.118;2023-05-07T08:20:21;17.10;99.90
7936;DHT22;4013;49.744;8.118;2023-05-07T08:22:48;17.10;99.90
7936;DHT22;4013;49.744;8.118;2023-05-07T08:25:17;17.20;99.90
7936;DHT22;4013;49.744;8.118;2023-05-07T08:27:43;17.30;99.90
7936;DHT22;4013;49.744;8.118;2023-05-07T08:30:12;17.40;99.90
7936;DHT22;4013;49.744;8.118;2023-05-07T08:32:39;17.40;99.90
7936;DHT22;4013;49.744;8.118;2023-05-07T08:35:09;17.40;99.90
7936;DHT22;4013;49.744;8.118;2023-05-07T08:37:36;17.50;99.90
7936;DHT22;4013;49.744;8.118;2023-05-07T08:40:03;17.60;99.90
7936;DHT22;4013;49.744;8.118;2023-05-07T08:42:35;17.70;99.90
7936;DHT22;4013;49.744;8.118;2023-05-07T08:45:04;17.70;99.90
7936;DHT22;4013;49.744;8.118;2023-05-07T08:47:42;17.60;99.90
7936;DHT22;4013;49.744;8.118;2023-05-07T08:50:10;17.60;99.90
7936;DHT22;4013;49.744;8.118;2023-05-07T08:52:37;17.60;99.90
7936;DHT22;4013;49.744;8.118;2023-05-07T08:55:07;17.60;99.90
7936;DHT22;4013;49.744;8.118;2023-05-07T08:57:35;17.60;99.90
7936;DHT22;4013;49.744;8.118;2023-05-07T09:00:03;17.80;99.90
7936;DHT22;4013;49.744;8.118;2023-05-07T09:02:33;17.70;99.90
7936;DHT22;4013;49.744;8.118;2023-05-07T09:05:01;17.80;99.90
7936;DHT22;4013;49.744;8.118;2023-05-07T09:07:30;17.90;99.90
7936;DHT22;4013;49.744;8.118;2023-05-07T09:09:57;18.00;99.90
7936;DHT22;4013;49.744;8.118;2023-05-07T09:12:25;18.00;99.90
7936;DHT22;4013;49.744;8.118;2023-05-07T09:14:53;18.00;99.90
7936;DHT22;4013;49.744;8.118;2023-05-07T09:17:20;18.00;99.90
7936;DHT22;4013;49.744;8.118;2023-05-07T09:19:47;18.10;99.90
7936;DHT22;4013;49.744;8.118;2023-05-07T09:22:16;18.10;99.90
7936;DHT22;4013;49.744;8.118;2023-05-07T09:24:47;18.20;99.90
7936;DHT22;4013;49.744;8.118;2023-05-07T09:27:14;18.30;99.90
7936;DHT22;4013;49.744;8.118;2023-05-07T09:29:41;18.20;99.90
7936;DHT22;4013;49.744;8.118;2023-05-07T09:32:11;18.30;99.90
7936;DHT22;4013;49.744;8.118;2023-05-07T09:34:38;18.30;99.90
7936;DHT22;4013;49.744;8.118;2023-05-07T09:37:06;18.30;99.90
7936;DHT22;4013;49.744;8.118;2023-05-07T09:39:40;18.40;99.90
7936;DHT22;4013;49.744;8.118;2023-05-07T09:42:10;18.50;99.90
7936;DHT22;4013;49.744;8.118;2023-05-07T09:44:37;18.60;99.90
7936;DHT22;4013;49.744;8.118;2023-05-07T09:47:06;18.50;99.90
7936;DHT22;4013;49.744;8.118;2023-05-07T09:49:36;18.60;99.90
7936;DHT22;4013;49.744;8.118;2023-05-07T09:52:04;18.70;99.90
7936;DHT22;4013;49.744;8.118;2023-05-07T09:54:35;18.80;99.90
7936;DHT22;4013;49.744;8.118;2023-05-07T09:57:04;18.90;99.90
7936;DHT22;4013;49.744;8.118;2023-05-07T09:59:32;19.00;99.90
7936;DHT22;4013;49.744;8.118;2023-05-07T10:02:00;18.90;99.90
7936;DHT22;4013;49.744;8.118;2023-05-07T10:04:28;18.90;99.90
7936;DHT22;4013;49.744;8.118;2023-05-07T10:06:57;19.10;99.90
7936;DHT22;4013;49.744;8.118;2023-05-07T10:09:26;19.20;99.90
7936;DHT22;4013;49.744;8.118;2023-05-07T10:11:54;19.20;99.90
7936;DHT22;4013;49.744;8.118;2023-05-07T10:14:21;19.30;99.90
7936;DHT22;4013;49.744;8.118;2023-05-07T10:16:49;19.20;99.90
7936;DHT22;4013;49.744;8.118;2023-05-07T10:19:16;19.20;99.90
7936;DHT22;4013;49.744;8.118;2023-05-07T10:21:48;19.30;99.90
7936;DHT22;4013;49.744;8.118;2023-05-07T10:24:21;19.40;99.90
7936;DHT22;4013;49.744;8.118;2023-05-07T10:26:50;19.50;99.90
7936;DHT22;4013;49.744;8.118;2023-05-07T10:29:25;19.70;99.90
7936;DHT22;4013;49.744;8.118;2023-05-07T10:31:58;19.80;99.90
7936;DHT22;4013;49.744;8.118;2023-05-07T10:34:29;20.00;99.90
7936;DHT22;4013;49.744;8.118;2023-05-07T10:36:59;20.00;99.90
7936;DHT22;4013;49.744;8.118;2023-05-07T10:39:28;20.10;99.90
7936;DHT22;4013;49.744;8.118;2023-05-07T10:41:56;20.00;99.90
7936;DHT22;4013;49.744;8.118;2023-05-07T10:44:27;20.10;99.90
7936;DHT22;4013;49.744;8.118;2023-05-07T10:47:05;20.20;99.90
7936;DHT22;4013;49.744;8.118;2023-05-07T10:49:35;20.30;99.90
7936;DHT22;4013;49.744;8.118;2023-05-07T10:52:12;20.40;99.90
7936;DHT22;4013;49.744;8.118;2023-05-07T10:54:42;20.50;99.90
7936;DHT22;4013;49.744;8.118;2023-05-07T10:57:33;20.40;99.90
7936;DHT22;4013;49.744;8.118;2023-05-07T11:00:02;20.50;99.90
7936;DHT22;4013;49.744;8.118;2023-05-07T11:05:31;20.60;99.90
7936;DHT22;4013;49.744;8.118;2023-05-07T11:08:00;20.60;99.90
7936;DHT22;4013;49.744;8.118;2023-05-07T11:10:49;20.60;99.90
7936;DHT22;4013;49.744;8.118;2023-05-07T11:13:41;20.80;99.90
7936;DHT22;4013;49.744;8.118;2023-05-07T11:16:17;21.00;99.90
7936;DHT22;4013;49.744;8.118;2023-05-07T11:18:48;21.20;99.90
7936;DHT22;4013;49.744;8.118;2023-05-07T11:21:34;21.40;99.90
7936;DHT22;4013;49.744;8.118;2023-05-07T11:24:05;21.40;99.90
7936;DHT22;4013;49.744;8.118;2023-05-07T11:26:44;21.50;99.90
7936;DHT22;4013;49.744;8.118;2023-05-07T11:29:12;21.50;99.90
7936;DHT22;4013;49.744;8.118;2023-05-07T11:31:40;21.50;99.90
7936;DHT22;4013;49.744;8.118;2023-05-07T11:34:08;21.50;99.90
7936;DHT22;4013;49.744;8.118;2023-05-07T11:36:36;21.50;99.90
7936;DHT22;4013;49.744;8.118;2023-05-07T11:39:26;21.50;99.90
7936;DHT22;4013;49.744;8.118;2023-05-07T11:41:54;21.50;99.90
7936;DHT22;4013;49.744;8.118;2023-05-07T11:44:21;21.40;99.90
7936;DHT22;4013;49.744;8.118;2023-05-07T11:46:49;21.50;99.90
7936;DHT22;4013;49.744;8.118;2023-05-07T11:49:17;21.60;99.90
7936;DHT22;4013;49.744;8.118;2023-05-07T11:51:44;21.70;99.90
7936;DHT22;4013;49.744;8.118;2023-05-07T11:54:15;21.70;99.90
7936;DHT22;4013;49.744;8.118;2023-05-07T11:56:44;21.70;99.90
7936;DHT22;4013;49.744;8.118;2023-05-07T11:59:17;21.70;99.90
7936;DHT22;4013;49.744;8.118;2023-05-07T12:01:46;21.80;99.90
7936;DHT22;4013;49.744;8.118;2023-05-07T12:04:13;21.80;99.90
7936;DHT22;4013;49.744;8.118;2023-05-07T12:06:40;21.80;99.90
7936;DHT22;4013;49.744;8.118;2023-05-07T12:09:07;21.70;99.90
7936;DHT22;4013;49.744;8.118;2023-05-07T12:11:37;21.70;99.90
7936;DHT22;4013;49.744;8.118;2023-05-07T12:14:05;21.80;99.90
7936;DHT22;4013;49.744;8.118;2023-05-07T12:16:33;21.90;99.90
7936;DHT22;4013;49.744;8.118;2023-05-07T12:19:01;22.00;99.90
7936;DHT22;4013;49.744;8.118;2023-05-07T12:21:28;21.90;99.90
7936;DHT22;4013;49.744;8.118;2023-05-07T12:23:56;21.90;99.90
7936;DHT22;4013;49.744;8.118;2023-05-07T12:26:23;21.90;99.90
7936;DHT22;4013;49.744;8.118;2023-05-07T12:28:50;21.90;99.90
7936;DHT22;4013;49.744;8.118;2023-05-07T12:31:17;22.00;99.90
7936;DHT22;4013;49.744;8.118;2023-05-07T12:33:46;21.90;99.90
7936;DHT22;4013;49.744;8.118;2023-05-07T12:36:13;22.00;99.90
7936;DHT22;4013;49.744;8.118;2023-05-07T12:38:40;22.00;99.90
7936;DHT22;4013;49.744;8.118;2023-05-07T12:41:08;22.00;99.90
7936;DHT22;4013;49.744;8.118;2023-05-07T12:43:35;22.00;99.90
7936;DHT22;4013;49.744;8.118;2023-05-07T12:46:05;22.00;99.90
7936;DHT22;4013;49.744;8.118;2023-05-07T12:48:32;22.00;99.90
7936;DHT22;4013;49.744;8.118;2023-05-07T12:51:01;22.00;99.90
7936;DHT22;4013;49.744;8.118;2023-05-07T12:53:29;22.00;99.90
7936;DHT22;4013;49.744;8.118;2023-05-07T12:55:57;22.10;99.90
7936;DHT22;4013;49.744;8.118;2023-05-07T12:58:26;22.20;99.90
7936;DHT22;4013;49.744;8.118;2023-05-07T13:00:54;22.20;99.90
7936;DHT22;4013;49.744;8.118;2023-05-07T13:03:25;22.20;99.90
7936;DHT22;4013;49.744;8.118;2023-05-07T13:05:55;22.10;99.90
7936;DHT22;4013;49.744;8.118;2023-05-07T13:08:29;22.10;99.90
7936;DHT22;4013;49.744;8.118;2023-05-07T13:10:57;22.20;99.90
7936;DHT22;4013;49.744;8.118;2023-05-07T13:13:30;22.20;99.90
7936;DHT22;4013;49.744;8.118;2023-05-07T13:15:57;22.20;99.90
7936;DHT22;4013;49.744;8.118;2023-05-07T13:18:25;22.20;99.90
7936;DHT22;4013;49.744;8.118;2023-05-07T13:20:52;22.20;99.90
7936;DHT22;4013;49.744;8.118;2023-05-07T13:23:19;22.30;99.90
7936;DHT22;4013;49.744;8.118;2023-05-07T13:25:48;22.20;99.90
7936;DHT22;4013;49.744;8.118;2023-05-07T13:28:16;22.20;99.90
7936;DHT22;4013;49.744;8.118;2023-05-07T13:30:43;22.30;99.90
7936;DHT22;4013;49.744;8.118;2023-05-07T13:33:10;22.30;99.90
7936;DHT22;4013;49.744;8.118;2023-05-07T13:35:37;22.40;99.90
7936;DHT22;4013;49.744;8.118;2023-05-07T13:38:04;22.40;99.90
7936;DHT22;4013;49.744;8.118;2023-05-07T13:40:31;22.30;99.90
7936;DHT22;4013;49.744;8.118;2023-05-07T13:43:00;22.40;99.90
7936;DHT22;4013;49.744;8.118;2023-05-07T13:45:27;22.40;99.90
7936;DHT22;4013;49.744;8.118;2023-05-07T13:47:55;22.30;99.90
7936;DHT22;4013;49.744;8.118;2023-05-07T13:50:22;22.30;99.90
7936;DHT22;4013;49.744;8.118;2023-05-07T13:52:49;22.30;99.90
7936;DHT22;4013;49.744;8.118;2023-05-07T13:55:17;22.20;99.90
7936;DHT22;4013;49.744;8.118;2023-05-07T13:57:44;22.20;99.90
7936;DHT22;4013;49.744;8.118;2023-05-07T14:00:13;22.20;99.90
7936;DHT22;4013;49.744;8.118;2023-05-07T14:02:41;22.20;99.90
7936;DHT22;4013;49.744;8.118;2023-05-07T14:05:09;22.20;99.90
7936;DHT22;4013;49.744;8.118;2023-05-07T14:07:36;22.30;99.90
7936;DHT22;4013;49.744;8.118;2023-05-07T14:10:04;22.30;99.90
7936;DHT22;4013;49.744;8.118;2023-05-07T14:12:31;22.40;99.90
7936;DHT22;4013;49.744;8.118;2023-05-07T14:14:58;22.40;99.90
7936;DHT22;4013;49.744;8.118;2023-05-07T14:17:27;22.40;99.90
7936;DHT22;4013;49.744;8.118;2023-05-07T14:19:54;22.40;99.90
7936;DHT22;4013;49.744;8.118;2023-05-07T14:22:22;22.40;99.90
7936;DHT22;4013;49.744;8.118;2023-05-07T14:24:49;22.30;99.90
7936;DHT22;4013;49.744;8.118;2023-05-07T14:27:16;22.20;99.90
7936;DHT22;4013;49.744;8.118;2023-05-07T14:29:43;22.20;99.90
7936;DHT22;4013;49.744;8.118;2023-05-07T14:32:11;22.10;99.90
7936;DHT22;4013;49.744;8.118;2023-05-07T14:34:39;22.10;99.90
7936;DHT22;4013;49.744;8.118;2023-05-07T14:37:06;22.00;99.90
7936;DHT22;4013;49.744;8.118;2023-05-07T14:39:33;22.10;99.90
7936;DHT22;4013;49.744;8.118;2023-05-07T14:42:00;22.00;99.90
7936;DHT22;4013;49.744;8.118;2023-05-07T14:44:27;22.00;99.90
7936;DHT22;4013;49.744;8.118;2023-05-07T14:46:54;21.90;99.90
7936;DHT22;4013;49.744;8.118;2023-05-07T14:49:21;21.90;99.90
7936;DHT22;4013;49.744;8.118;2023-05-07T14:51:49;21.80;99.90
7936;DHT22;4013;49.744;8.118;2023-05-07T14:54:16;21.80;99.90
7936;DHT22;4013;49.744;8.118;2023-05-07T14:56:43;21.70;99.90
7936;DHT22;4013;49.744;8.118;2023-05-07T14:59:10;21.70;99.90
7936;DHT22;4013;49.744;8.118;2023-05-07T15:01:37;21.60;99.90
7936;DHT22;4013;49.744;8.118;2023-05-07T15:04:06;21.60;99.90
7936;DHT22;4013;49.744;8.118;2023-05-07T15:06:33;21.50;99.90
7936;DHT22;4013;49.744;8.118;2023-05-07T15:09:01;21.50;99.90
7936;DHT22;4013;49.744;8.118;2023-05-07T15:11:28;21.50;99.90
7936;DHT22;4013;49.744;8.118;2023-05-07T15:13:56;21.40;99.90
7936;DHT22;4013;49.744;8.118;2023-05-07T15:16:23;21.40;99.90
7936;DHT22;4013;49.744;8.118;2023-05-07T15:18:50;21.40;99.90
7936;DHT22;4013;49.744;8.118;2023-05-07T15:21:17;21.40;99.90
7936;DHT22;4013;49.744;8.118;2023-05-07T15:23:44;21.30;99.90
7936;DHT22;4013;49.744;8.118;2023-05-07T15:26:12;21.30;99.90
7936;DHT22;4013;49.744;8.118;2023-05-07T15:28:39;21.30;99.90
7936;DHT22;4013;49.744;8.118;2023-05-07T15:31:06;21.30;99.90
7936;DHT22;4013;49.744;8.118;2023-05-07T15:33:34;21.30;99.90
7936;DHT22;4013;49.744;8.118;2023-05-07T15:36:01;21.20;99.90
7936;DHT22;4013;49.744;8.118;2023-05-07T15:38:29;21.20;99.90
7936;DHT22;4013;49.744;8.118;2023-05-07T15:40:56;21.30;99.90
7936;DHT22;4013;49.744;8.118;2023-05-07T15:43:24;21.20;99.90
7936;DHT22;4013;49.744;8.118;2023-05-07T15:45:51;21.00;99.90
7936;DHT22;4013;49.744;8.118;2023-05-07T15:48:18;20.90;99.90
7936;DHT22;4013;49.744;8.118;2023-05-07T15:50:46;20.60;99.90
7936;DHT22;4013;49.744;8.118;2023-05-07T15:53:12;20.30;99.90
7936;DHT22;4013;49.744;8.118;2023-05-07T15:55:40;19.90;99.90
7936;DHT22;4013;49.744;8.118;2023-05-07T15:58:07;19.70;99.90
7936;DHT22;4013;49.744;8.118;2023-05-07T16:00:37;19.30;99.90
7936;DHT22;4013;49.744;8.118;2023-05-07T16:03:05;19.00;99.90
7936;DHT22;4013;49.744;8.118;2023-05-07T16:05:33;18.60;99.90
7936;DHT22;4013;49.744;8.118;2023-05-07T16:08:00;18.30;99.90
7936;DHT22;4013;49.744;8.118;2023-05-07T16:10:27;18.00;99.90
7936;DHT22;4013;49.744;8.118;2023-05-07T16:12:54;17.70;99.90
7936;DHT22;4013;49.744;8.118;2023-05-07T16:15:21;17.50;99.90
7936;DHT22;4013;49.744;8.118;2023-05-07T16:17:49;17.30;99.90
7936;DHT22;4013;49.744;8.118;2023-05-07T16:20:16;17.10;99.90
7936;DHT22;4013;49.744;8.118;2023-05-07T16:22:46;17.00;99.90
7936;DHT22;4013;49.744;8.118;2023-05-07T16:25:15;16.80;99.90
7936;DHT22;4013;49.744;8.118;2023-05-07T16:27:42;16.70;99.90
7936;DHT22;4013;49.744;8.118;2023-05-07T16:30:10;16.80;99.90
7936;DHT22;4013;49.744;8.118;2023-05-07T16:32:37;16.80;99.90
7936;DHT22;4013;49.744;8.118;2023-05-07T16:35:06;16.80;99.90
7936;DHT22;4013;49.744;8.118;2023-05-07T16:37:33;16.90;99.90
7936;DHT22;4013;49.744;8.118;2023-05-07T16:40:00;16.70;99.90
7936;DHT22;4013;49.744;8.118;2023-05-07T16:42:31;16.70;99.90
7936;DHT22;4013;49.744;8.118;2023-05-07T16:44:58;16.60;99.90
7936;DHT22;4013;49.744;8.118;2023-05-07T16:47:25;16.50;99.90
7936;DHT22;4013;49.744;8.118;2023-05-07T16:49:52;16.40;99.90
7936;DHT22;4013;49.744;8.118;2023-05-07T16:52:21;16.20;99.90
7936;DHT22;4013;49.744;8.118;2023-05-07T16:54:49;16.20;99.90
7936;DHT22;4013;49.744;8.118;2023-05-07T16:57:16;16.00;99.90
7936;DHT22;4013;49.744;8.118;2023-05-07T16:59:43;15.90;99.90
7936;DHT22;4013;49.744;8.118;2023-05-07T17:02:10;15.80;99.90
7936;DHT22;4013;49.744;8.118;2023-05-07T17:04:36;15.80;99.90
7936;DHT22;4013;49.744;8.118;2023-05-07T17:07:03;15.90;99.90
7936;DHT22;4013;49.744;8.118;2023-05-07T17:09:32;15.90;99.90
7936;DHT22;4013;49.744;8.118;2023-05-07T17:12:01;15.90;99.90
7936;DHT22;4013;49.744;8.118;2023-05-07T17:14:28;15.90;99.90
7936;DHT22;4013;49.744;8.118;2023-05-07T17:16:55;15.90;99.90
7936;DHT22;4013;49.744;8.118;2023-05-07T17:19:23;15.80;99.90
7936;DHT22;4013;49.744;8.118;2023-05-07T17:21:49;15.80;99.90
7936;DHT22;4013;49.744;8.118;2023-05-07T17:24:16;15.80;99.90
7936;DHT22;4013;49.744;8.118;2023-05-07T17:26:46;15.70;99.90
7936;DHT22;4013;49.744;8.118;2023-05-07T17:29:16;15.70;99.90
7936;DHT22;4013;49.744;8.118;2023-05-07T17:31:44;15.60;99.90
7936;DHT22;4013;49.744;8.118;2023-05-07T17:34:11;15.70;99.90
7936;DHT22;4013;49.744;8.118;2023-05-07T17:36:38;15.60;99.90
7936;DHT22;4013;49.744;8.118;2023-05-07T17:39:05;15.60;99.90
7936;DHT22;4013;49.744;8.118;2023-05-07T17:41:34;15.60;99.90
7936;DHT22;4013;49.744;8.118;2023-05-07T17:44:03;15.60;99.90
7936;DHT22;4013;49.744;8.118;2023-05-07T17:46:30;15.60;99.90
7936;DHT22;4013;49.744;8.118;2023-05-07T17:48:57;15.60;99.90
7936;DHT22;4013;49.744;8.118;2023-05-07T17:51:24;15.60;99.90
7936;DHT22;4013;49.744;8.118;2023-05-07T17:53:53;15.60;99.90
7936;DHT22;4013;49.744;8.118;2023-05-07T17:56:21;15.70;99.90
7936;DHT22;4013;49.744;8.118;2023-05-07T17:58:48;15.60;99.90
7936;DHT22;4013;49.744;8.118;2023-05-07T18:01:16;15.60;99.90
7936;DHT22;4013;49.744;8.118;2023-05-07T18:03:43;15.70;99.90
7936;DHT22;4013;49.744;8.118;2023-05-07T18:06:10;15.80;99.90
7936;DHT22;4013;49.744;8.118;2023-05-07T18:08:42;15.90;99.90
7936;DHT22;4013;49.744;8.118;2023-05-07T18:11:09;15.90;99.90
7936;DHT22;4013;49.744;8.118;2023-05-07T18:13:37;15.90;99.90
7936;DHT22;4013;49.744;8.118;2023-05-07T18:16:04;16.00;99.90
7936;DHT22;4013;49.744;8.118;2023-05-07T18:18:32;15.90;99.90
7936;DHT22;4013;49.744;8.118;2023-05-07T18:21:00;15.80;99.90
7936;DHT22;4013;49.744;8.118;2023-05-07T18:23:27;15.90;99.90
7936;DHT22;4013;49.744;8.118;2023-05-07T18:25:54;15.90;99.90
7936;DHT22;4013;49.744;8.118;2023-05-07T18:28:21;16.00;99.90
7936;DHT22;4013;49.744;8.118;2023-05-07T18:30:48;15.90;99.90
7936;DHT22;4013;49.744;8.118;2023-05-07T18:33:15;16.00;99.90